Nearby METAR Reports

KLNK - Lincoln, Nebraska, USA
Distance from station: WNW 8mi, 13km
Updated: Sat, 21-Sep-2019 12:54am CDT
Overcast
Overcast
 Wind from S
Wind: S 17 mph , 28 km/h
Temperature: 73°F , 23°C
Dew Point: 68°F , 20°C
Humidity: 83%
Barometer: 29.87 inHg , 1011.5 hPa
Clouds: Overcast
Visibility: 10 miles , 16 km
Cloud details: Overcast 1300 ft
2019/09/21 05:54 KLNK 210554Z 17015KT 10SM OVC013 23/20 A2987 RMK AO2 SLP102 60000 T02280200 10250 20222 403170211 58005
KAHQ - Wahoo, Nebraska, USA
Distance from station: N 31mi, 49km
Updated: Sat, 21-Sep-2019 12:55am CDT
Overcast
Overcast
 Wind from SSE
Wind: SSE 12 mph , 19 km/h, Gust: 21 mph , 33 km/h
Temperature: 72°F , 22°C
Dew Point: 70°F , 21°C
Humidity: 94%
Barometer: 29.88 inHg , 1011.9 hPa
Clouds: Overcast
Visibility: 10 miles , 16 km
Cloud details: Overcast 1100 ft
2019/09/21 05:55 KAHQ 210555Z AUTO 16010G18KT 10SM OVC011 22/21 A2988 RMK AO2 T02210213 10243 20220 403040205
 
KBIE - Beatrice Municip, Nebraska, USA
Distance from station: S 36mi, 57km
Updated: Sat, 21-Sep-2019 12:55am CDT
Overcast
Overcast
 Wind from S
Wind: S 13 mph , 20 km/h
Temperature: 73°F , 23°C
Dew Point: 72°F , 22°C
Humidity: 94%
Barometer: 29.88 inHg , 1011.9 hPa
Clouds: Overcast
Visibility: 10 miles , 16 km
Cloud details: Overcast 1300 ft
2019/09/21 05:55 KBIE 210555Z AUTO 17011KT 10SM OVC013 23/22 A2988 RMK AO2 T02300216 10240 20220 402950220
KMLE - Omaha/Millard, Nebraska, USA
Distance from station: NE 39mi, 63km
Updated: Sat, 21-Sep-2019 12:55am CDT
Overcast
Overcast
 Wind from S
Wind: S 13 mph , 20 km/h, Gust: 17 mph , 28 km/h
Temperature: 73°F , 23°C
Dew Point: 70°F , 21°C
Humidity: 89%
Barometer: 29.89 inHg , 1012.2 hPa
Clouds: Overcast
Visibility: 10 miles , 16 km
Cloud details: Overcast 1200 ft
2019/09/21 05:55 KMLE 210555Z AUTO 17011G15KT 10SM OVC012 23/21 A2989 RMK AO2 T02330208 10257 20230 403110222
 
KPMV - Plattsmouth Muni, Nebraska, USA
Distance from station: ENE 39mi, 63km
Updated: Sat, 21-Sep-2019 12:55am CDT
Overcast
Overcast
 Wind from SSE
Wind: SSE 12 mph , 19 km/h, Gust: 21 mph , 33 km/h
Temperature: 73°F , 23°C
Dew Point: 70°F , 21°C
Humidity: 89%
Barometer: 29.91 inHg , 1012.9 hPa
Clouds: Overcast
Visibility: 10 miles , 16 km
Cloud details: Overcast 1200 ft
2019/09/21 05:55 KPMV 210555Z AUTO 16010G18KT 10SM OVC012 23/21 A2991 RMK AO2 T02250212 10242 20222 402980216
KAFK - Nebraska City, Nebraska, USA
Distance from station: ESE 43mi, 69km
Updated: Sat, 21-Sep-2019 12:55am CDT
Overcast
Overcast
 Wind from S
Wind: S 13 mph , 20 km/h, Gust: 21 mph , 33 km/h
Temperature: 72°F , 22°C
Dew Point: 72°F , 22°C
Humidity: 100%
Barometer: 29.92 inHg , 1013.2 hPa
Clouds: Overcast
Visibility: 10 miles , 16 km
Cloud details: Overcast 900 ft
2019/09/21 05:55 KAFK 210555Z AUTO 18011G18KT 10SM OVC009 22/22 A2992 RMK AO2 T02240224 10242 20220 403030211
 
KOFF - Offutt Afb/Belle, Nebraska, USA
Distance from station: ENE 44mi, 70km
Updated: Fri, 20-Sep-2019 11:22pm CDT
NOT Current
Mostly Cloudy
Mostly Cloudy
 Wind from SSE
Wind: SSE 14 mph , 22 km/h
Temperature: 73°F , 23°C
Dew Point: 68°F , 20°C
Humidity: 83%
Barometer: 29.93 inHg , 1013.5 hPa
Clouds: Mostly Cloudy
Visibility: 10 miles , 16 km
Cloud details: Few Clouds 1500 ft
Mostly Cloudy 3000 ft
2019/09/21 04:22 KOFF 210422Z 15012KT 10SM FEW015 BKN030 23/20 A2993 RMK AO2A RAE16 SLP119 RVRNO $
KFET - Fremont Muni Arp, Nebraska, USA
Distance from station: N 46mi, 74km
Updated: Sat, 21-Sep-2019 12:55am CDT
Overcast
Overcast
 Wind from SSE
Wind: SSE 12 mph , 19 km/h, Gust: 21 mph , 33 km/h
Temperature: 73°F , 23°C
Dew Point: 72°F , 22°C
Humidity: 94%
Barometer: 29.87 inHg , 1011.5 hPa
Clouds: Overcast
Visibility: 10 miles , 16 km
Cloud details: Overcast 700 ft
2019/09/21 05:55 KFET 210555Z AUTO 15010G18KT 10SM OVC007 23/22 A2987 RMK AO2 T02260217 10250 20225 403040223
 
KBTA - Blair Muni, Nebraska, USA
Distance from station: NNE 51mi, 82km
Updated: Sat, 21-Sep-2019 12:55am CDT
Overcast
Overcast
 Wind from S
Wind: S 20 mph , 31 km/h
Temperature: 72°F , 22°C
Dew Point: 68°F , 20°C
Humidity: 88%
Barometer: 29.88 inHg , 1011.9 hPa
Clouds: Overcast
Visibility: 10 miles , 16 km
Cloud details: Overcast 1200 ft
2019/09/21 05:55 KBTA 210555Z AUTO 17017KT 10SM OVC012 22/20 A2988 RMK AO2 T02230203 10256 20220 403000215
KJYR - York, Nebraska, USA
Distance from station: W 52mi, 84km
Updated: Sat, 21-Sep-2019 1:00am CDT
Overcast
Overcast
 Wind from S
Wind: S 13 mph , 20 km/h, Gust: 21 mph , 33 km/h
Temperature: 72°F , 22°C
Dew Point: 68°F , 20°C
Humidity: 88%
Barometer: 29.86 inHg , 1011.2 hPa
Clouds: Overcast
Visibility: 10 miles , 16 km
Cloud details: Overcast 1200 ft
2019/09/21 06:00 KJYR 210600Z AUTO 17011G18KT 10SM OVC012 22/20 A2986 RMK AO2
 
KOMA - Omaha/Eppley, Nebraska, USA
Distance from station: NE 53mi, 85km
Updated: Sat, 21-Sep-2019 12:52am CDT
Overcast
Overcast
 Wind from S
Wind: S 16 mph , 26 km/h
Temperature: 73°F , 23°C
Dew Point: 70°F , 21°C
Humidity: 89%
Barometer: 29.88 inHg , 1011.9 hPa
Clouds: Overcast
Visibility: 10 miles , 16 km
Cloud details: Overcast 1700 ft
2019/09/21 05:52 KOMA 210552Z 17014KT 10SM OVC017 23/21 A2988 RMK AO2 PK WND 15029/0453 RAE31 SLP109 P0000 60000 T02330206 10267 20228 403110217 56004
KOLU - Columbus Muni, Nebraska, USA
Distance from station: NW 58mi, 93km
Updated: Sat, 21-Sep-2019 12:56am CDT
Overcast
Overcast
 Wind from SSE
Wind: SSE 13 mph , 20 km/h, Gust: 22 mph , 35 km/h
Temperature: 72°F , 22°C
Dew Point: 68°F , 20°C
Humidity: 88%
Barometer: 29.85 inHg , 1010.8 hPa
Clouds: Overcast
Visibility: 10 miles , 16 km
Cloud details: Overcast 1200 ft
2019/09/21 05:56 KOLU 210556Z AUTO 16011G19KT 10SM OVC012 22/20 A2985 RMK AO2 SLP096 T02220200 10256 20222 403110217 57007